sensor_id;sensor_type;location;lat;lon;timestamp;P1;durP1;ratioP1;P2;durP2;ratioP2
33954;SDS011;20233;50.804;7.126;2023-07-22T00:00:10;8.48;;;5.00;;
33954;SDS011;20233;50.804;7.126;2023-07-22T00:02:39;10.95;;;5.95;;
33954;SDS011;20233;50.804;7.126;2023-07-22T00:05:05;10.85;;;6.18;;
33954;SDS011;20233;50.804;7.126;2023-07-22T00:07:31;11.38;;;7.07;;
33954;SDS011;20233;50.804;7.126;2023-07-22T00:09:57;8.95;;;6.38;;
33954;SDS011;20233;50.804;7.126;2023-07-22T00:12:22;8.23;;;5.95;;
33954;SDS011;20233;50.804;7.126;2023-07-22T00:14:50;9.38;;;6.57;;
33954;SDS011;20233;50.804;7.126;2023-07-22T00:17:16;10.93;;;7.45;;
33954;SDS011;20233;50.804;7.126;2023-07-22T00:19:42;9.02;;;6.18;;
33954;SDS011;20233;50.804;7.126;2023-07-22T00:22:07;8.93;;;6.30;;
33954;SDS011;20233;50.804;7.126;2023-07-22T00:24:33;11.27;;;7.03;;
33954;SDS011;20233;50.804;7.126;2023-07-22T00:26:58;10.65;;;7.03;;
33954;SDS011;20233;50.804;7.126;2023-07-22T00:29:24;10.77;;;5.70;;
33954;SDS011;20233;50.804;7.126;2023-07-22T00:31:49;12.18;;;6.30;;
33954;SDS011;20233;50.804;7.126;2023-07-22T00:34:15;11.05;;;7.70;;
33954;SDS011;20233;50.804;7.126;2023-07-22T00:36:41;13.52;;;7.38;;
33954;SDS011;20233;50.804;7.126;2023-07-22T00:39:07;13.48;;;6.97;;
33954;SDS011;20233;50.804;7.126;2023-07-22T00:41:32;10.50;;;7.05;;
33954;SDS011;20233;50.804;7.126;2023-07-22T00:43:58;9.88;;;6.55;;
33954;SDS011;20233;50.804;7.126;2023-07-22T00:46:23;9.90;;;6.93;;
33954;SDS011;20233;50.804;7.126;2023-07-22T00:48:49;10.85;;;6.63;;
33954;SDS011;20233;50.804;7.126;2023-07-22T00:51:15;12.55;;;6.97;;
33954;SDS011;20233;50.804;7.126;2023-07-22T00:53:42;10.43;;;6.90;;
33954;SDS011;20233;50.804;7.126;2023-07-22T00:56:08;11.07;;;7.10;;
33954;SDS011;20233;50.804;7.126;2023-07-22T00:58:33;14.27;;;7.95;;
33954;SDS011;20233;50.804;7.126;2023-07-22T01:00:59;11.80;;;6.40;;
33954;SDS011;20233;50.804;7.126;2023-07-22T01:03:25;10.45;;;6.55;;
33954;SDS011;20233;50.804;7.126;2023-07-22T01:05:50;11.18;;;7.25;;
33954;SDS011;20233;50.804;7.126;2023-07-22T01:08:17;12.98;;;7.68;;
33954;SDS011;20233;50.804;7.126;2023-07-22T01:10:42;11.43;;;7.43;;
33954;SDS011;20233;50.804;7.126;2023-07-22T01:13:08;12.40;;;7.50;;
33954;SDS011;20233;50.804;7.126;2023-07-22T01:15:33;12.90;;;7.50;;
33954;SDS011;20233;50.804;7.126;2023-07-22T01:18:00;11.63;;;7.63;;
33954;SDS011;20233;50.804;7.126;2023-07-22T01:20:28;12.85;;;6.97;;
33954;SDS011;20233;50.804;7.126;2023-07-22T01:22:54;11.35;;;7.15;;
33954;SDS011;20233;50.804;7.126;2023-07-22T01:25:21;11.93;;;6.63;;
33954;SDS011;20233;50.804;7.126;2023-07-22T01:27:47;11.90;;;6.70;;
33954;SDS011;20233;50.804;7.126;2023-07-22T01:30:13;10.50;;;7.18;;
33954;SDS011;20233;50.804;7.126;2023-07-22T01:32:39;10.40;;;7.15;;
33954;SDS011;20233;50.804;7.126;2023-07-22T01:35:05;11.32;;;6.90;;
33954;SDS011;20233;50.804;7.126;2023-07-22T01:37:32;11.07;;;7.13;;
33954;SDS011;20233;50.804;7.126;2023-07-22T01:39:58;11.23;;;7.05;;
33954;SDS011;20233;50.804;7.126;2023-07-22T01:42:24;10.32;;;7.20;;
33954;SDS011;20233;50.804;7.126;2023-07-22T01:44:49;10.95;;;6.78;;
33954;SDS011;20233;50.804;7.126;2023-07-22T01:47:15;12.63;;;6.85;;
33954;SDS011;20233;50.804;7.126;2023-07-22T01:49:41;9.40;;;6.10;;
33954;SDS011;20233;50.804;7.126;2023-07-22T01:52:07;9.25;;;5.95;;
33954;SDS011;20233;50.804;7.126;2023-07-22T01:54:32;10.10;;;6.13;;
33954;SDS011;20233;50.804;7.126;2023-07-22T01:56:58;10.48;;;7.45;;
33954;SDS011;20233;50.804;7.126;2023-07-22T01:59:24;10.90;;;6.30;;
33954;SDS011;20233;50.804;7.126;2023-07-22T02:01:49;9.98;;;6.90;;
33954;SDS011;20233;50.804;7.126;2023-07-22T02:04:15;11.48;;;6.40;;
33954;SDS011;20233;50.804;7.126;2023-07-22T02:06:41;11.48;;;6.30;;
33954;SDS011;20233;50.804;7.126;2023-07-22T02:09:06;10.55;;;6.35;;
33954;SDS011;20233;50.804;7.126;2023-07-22T02:11:34;10.02;;;6.43;;
33954;SDS011;20233;50.804;7.126;2023-07-22T02:14:02;11.13;;;6.03;;
33954;SDS011;20233;50.804;7.126;2023-07-22T02:16:36;11.30;;;6.40;;
33954;SDS011;20233;50.804;7.126;2023-07-22T02:19:02;9.40;;;6.78;;
33954;SDS011;20233;50.804;7.126;2023-07-22T02:21:28;9.70;;;5.50;;
33954;SDS011;20233;50.804;7.126;2023-07-22T02:23:53;8.82;;;6.10;;
33954;SDS011;20233;50.804;7.126;2023-07-22T02:26:19;10.55;;;6.30;;
33954;SDS011;20233;50.804;7.126;2023-07-22T02:28:45;10.48;;;7.07;;
33954;SDS011;20233;50.804;7.126;2023-07-22T02:31:11;8.13;;;5.88;;
33954;SDS011;20233;50.804;7.126;2023-07-22T02:33:37;16.67;;;6.25;;
33954;SDS011;20233;50.804;7.126;2023-07-22T02:36:03;10.55;;;6.47;;
33954;SDS011;20233;50.804;7.126;2023-07-22T02:38:28;9.52;;;6.70;;
33954;SDS011;20233;50.804;7.126;2023-07-22T02:40:54;11.07;;;6.07;;
33954;SDS011;20233;50.804;7.126;2023-07-22T02:43:20;8.23;;;6.68;;
33954;SDS011;20233;50.804;7.126;2023-07-22T02:45:46;8.90;;;6.15;;
33954;SDS011;20233;50.804;7.126;2023-07-22T02:48:11;9.02;;;6.60;;
33954;SDS011;20233;50.804;7.126;2023-07-22T02:50:37;9.82;;;6.53;;
33954;SDS011;20233;50.804;7.126;2023-07-22T02:53:02;10.65;;;6.03;;
33954;SDS011;20233;50.804;7.126;2023-07-22T02:55:28;11.43;;;6.53;;
33954;SDS011;20233;50.804;7.126;2023-07-22T02:57:53;9.02;;;6.30;;
33954;SDS011;20233;50.804;7.126;2023-07-22T03:00:19;10.13;;;6.85;;
33954;SDS011;20233;50.804;7.126;2023-07-22T03:02:49;9.20;;;5.75;;
33954;SDS011;20233;50.804;7.126;2023-07-22T03:05:18;11.32;;;6.63;;
33954;SDS011;20233;50.804;7.126;2023-07-22T03:07:44;8.77;;;5.70;;
33954;SDS011;20233;50.804;7.126;2023-07-22T03:10:09;7.78;;;6.18;;
33954;SDS011;20233;50.804;7.126;2023-07-22T03:12:35;8.90;;;6.05;;
33954;SDS011;20233;50.804;7.126;2023-07-22T03:15:02;9.20;;;6.22;;
33954;SDS011;20233;50.804;7.126;2023-07-22T03:17:29;9.43;;;5.90;;
33954;SDS011;20233;50.804;7.126;2023-07-22T03:19:54;11.95;;;6.60;;
33954;SDS011;20233;50.804;7.126;2023-07-22T03:22:20;11.60;;;6.65;;
33954;SDS011;20233;50.804;7.126;2023-07-22T03:24:46;11.82;;;6.55;;
33954;SDS011;20233;50.804;7.126;2023-07-22T03:27:12;8.48;;;6.10;;
33954;SDS011;20233;50.804;7.126;2023-07-22T03:29:38;9.55;;;6.13;;
33954;SDS011;20233;50.804;7.126;2023-07-22T03:32:04;10.65;;;6.80;;
33954;SDS011;20233;50.804;7.126;2023-07-22T03:34:30;11.55;;;6.38;;
33954;SDS011;20233;50.804;7.126;2023-07-22T03:36:56;9.15;;;6.15;;
33954;SDS011;20233;50.804;7.126;2023-07-22T03:39:22;11.75;;;6.47;;
33954;SDS011;20233;50.804;7.126;2023-07-22T03:41:48;10.68;;;6.72;;
33954;SDS011;20233;50.804;7.126;2023-07-22T03:44:13;12.07;;;6.07;;
33954;SDS011;20233;50.804;7.126;2023-07-22T03:46:39;11.60;;;5.75;;
33954;SDS011;20233;50.804;7.126;2023-07-22T03:49:05;8.98;;;5.50;;
33954;SDS011;20233;50.804;7.126;2023-07-22T03:51:31;9.63;;;6.35;;
33954;SDS011;20233;50.804;7.126;2023-07-22T03:53:57;10.75;;;6.78;;
33954;SDS011;20233;50.804;7.126;2023-07-22T03:56:22;8.88;;;6.10;;
33954;SDS011;20233;50.804;7.126;2023-07-22T03:58:51;9.73;;;6.07;;
33954;SDS011;20233;50.804;7.126;2023-07-22T04:01:17;13.02;;;6.25;;
33954;SDS011;20233;50.804;7.126;2023-07-22T04:03:43;11.52;;;5.75;;
33954;SDS011;20233;50.804;7.126;2023-07-22T04:06:08;11.38;;;7.00;;
33954;SDS011;20233;50.804;7.126;2023-07-22T04:08:34;9.40;;;5.82;;
33954;SDS011;20233;50.804;7.126;2023-07-22T04:11:00;9.00;;;5.78;;
33954;SDS011;20233;50.804;7.126;2023-07-22T04:13:26;10.68;;;5.75;;
33954;SDS011;20233;50.804;7.126;2023-07-22T04:15:52;9.95;;;5.97;;
33954;SDS011;20233;50.804;7.126;2023-07-22T04:18:18;9.88;;;6.38;;
33954;SDS011;20233;50.804;7.126;2023-07-22T04:20:45;9.73;;;5.97;;
33954;SDS011;20233;50.804;7.126;2023-07-22T04:23:13;10.65;;;6.28;;
33954;SDS011;20233;50.804;7.126;2023-07-22T04:25:42;11.32;;;6.47;;
33954;SDS011;20233;50.804;7.126;2023-07-22T04:28:08;13.18;;;6.38;;
33954;SDS011;20233;50.804;7.126;2023-07-22T04:30:34;13.38;;;7.32;;
33954;SDS011;20233;50.804;7.126;2023-07-22T04:33:01;9.65;;;6.30;;
33954;SDS011;20233;50.804;7.126;2023-07-22T04:35:27;10.48;;;6.40;;
33954;SDS011;20233;50.804;7.126;2023-07-22T04:37:54;8.35;;;6.15;;
33954;SDS011;20233;50.804;7.126;2023-07-22T04:40:20;11.07;;;6.47;;
33954;SDS011;20233;50.804;7.126;2023-07-22T04:42:45;11.18;;;6.32;;
33954;SDS011;20233;50.804;7.126;2023-07-22T04:45:11;8.95;;;6.10;;
33954;SDS011;20233;50.804;7.126;2023-07-22T04:47:37;9.68;;;4.95;;
33954;SDS011;20233;50.804;7.126;2023-07-22T04:50:07;10.60;;;6.25;;
33954;SDS011;20233;50.804;7.126;2023-07-22T04:52:36;9.23;;;5.78;;
33954;SDS011;20233;50.804;7.126;2023-07-22T04:55:02;7.72;;;5.32;;
33954;SDS011;20233;50.804;7.126;2023-07-22T04:57:34;10.48;;;5.88;;
33954;SDS011;20233;50.804;7.126;2023-07-22T05:00:00;12.77;;;5.65;;
33954;SDS011;20233;50.804;7.126;2023-07-22T05:02:29;9.38;;;5.63;;
33954;SDS011;20233;50.804;7.126;2023-07-22T05:04:55;8.52;;;5.75;;
33954;SDS011;20233;50.804;7.126;2023-07-22T05:07:21;7.60;;;5.80;;
33954;SDS011;20233;50.804;7.126;2023-07-22T05:09:47;7.95;;;5.57;;
33954;SDS011;20233;50.804;7.126;2023-07-22T05:12:12;7.60;;;4.50;;
33954;SDS011;20233;50.804;7.126;2023-07-22T05:14:38;13.68;;;5.30;;
33954;SDS011;20233;50.804;7.126;2023-07-22T05:17:03;9.45;;;4.80;;
33954;SDS011;20233;50.804;7.126;2023-07-22T05:19:29;8.70;;;4.95;;
33954;SDS011;20233;50.804;7.126;2023-07-22T05:21:54;7.00;;;4.50;;
33954;SDS011;20233;50.804;7.126;2023-07-22T05:24:20;8.23;;;4.80;;
33954;SDS011;20233;50.804;7.126;2023-07-22T05:26:46;9.95;;;5.90;;
33954;SDS011;20233;50.804;7.126;2023-07-22T05:29:11;10.07;;;5.38;;
33954;SDS011;20233;50.804;7.126;2023-07-22T05:31:37;9.02;;;4.85;;
33954;SDS011;20233;50.804;7.126;2023-07-22T05:34:03;7.72;;;5.32;;
33954;SDS011;20233;50.804;7.126;2023-07-22T05:36:29;9.82;;;5.55;;
33954;SDS011;20233;50.804;7.126;2023-07-22T05:38:54;8.52;;;4.93;;
33954;SDS011;20233;50.804;7.126;2023-07-22T05:41:23;10.27;;;5.47;;
33954;SDS011;20233;50.804;7.126;2023-07-22T05:43:49;7.40;;;5.55;;
33954;SDS011;20233;50.804;7.126;2023-07-22T05:46:14;8.90;;;5.85;;
33954;SDS011;20233;50.804;7.126;2023-07-22T05:48:40;7.97;;;5.30;;
33954;SDS011;20233;50.804;7.126;2023-07-22T05:51:05;9.13;;;6.03;;
33954;SDS011;20233;50.804;7.126;2023-07-22T05:53:32;9.48;;;5.32;;
33954;SDS011;20233;50.804;7.126;2023-07-22T05:55:58;8.05;;;5.68;;
33954;SDS011;20233;50.804;7.126;2023-07-22T05:58:24;7.75;;;5.30;;
33954;SDS011;20233;50.804;7.126;2023-07-22T06:00:49;9.55;;;5.13;;
33954;SDS011;20233;50.804;7.126;2023-07-22T06:03:16;10.95;;;5.82;;
33954;SDS011;20233;50.804;7.126;2023-07-22T06:05:42;9.82;;;5.65;;
33954;SDS011;20233;50.804;7.126;2023-07-22T06:08:08;8.60;;;5.18;;
33954;SDS011;20233;50.804;7.126;2023-07-22T06:10:34;9.65;;;5.80;;
33954;SDS011;20233;50.804;7.126;2023-07-22T06:13:00;7.97;;;5.57;;
33954;SDS011;20233;50.804;7.126;2023-07-22T06:15:25;9.55;;;5.10;;
33954;SDS011;20233;50.804;7.126;2023-07-22T06:17:51;8.65;;;5.10;;
33954;SDS011;20233;50.804;7.126;2023-07-22T06:20:16;8.93;;;5.97;;
33954;SDS011;20233;50.804;7.126;2023-07-22T06:22:42;9.88;;;5.32;;
33954;SDS011;20233;50.804;7.126;2023-07-22T06:25:07;6.75;;;5.07;;
33954;SDS011;20233;50.804;7.126;2023-07-22T06:27:33;8.38;;;5.30;;
33954;SDS011;20233;50.804;7.126;2023-07-22T06:30:00;10.40;;;5.47;;
33954;SDS011;20233;50.804;7.126;2023-07-22T06:32:26;7.55;;;4.88;;
33954;SDS011;20233;50.804;7.126;2023-07-22T06:34:54;7.15;;;5.07;;
33954;SDS011;20233;50.804;7.126;2023-07-22T06:37:21;12.60;;;5.95;;
33954;SDS011;20233;50.804;7.126;2023-07-22T06:39:47;8.88;;;5.30;;
33954;SDS011;20233;50.804;7.126;2023-07-22T06:42:13;6.72;;;5.00;;
33954;SDS011;20233;50.804;7.126;2023-07-22T06:44:38;9.50;;;5.00;;
33954;SDS011;20233;50.804;7.126;2023-07-22T06:47:04;7.50;;;4.60;;
33954;SDS011;20233;50.804;7.126;2023-07-22T06:49:30;7.25;;;5.05;;
33954;SDS011;20233;50.804;7.126;2023-07-22T06:51:55;10.52;;;5.05;;
33954;SDS011;20233;50.804;7.126;2023-07-22T06:54:21;7.70;;;4.97;;
33954;SDS011;20233;50.804;7.126;2023-07-22T06:56:47;11.60;;;5.65;;
33954;SDS011;20233;50.804;7.126;2023-07-22T06:59:12;8.23;;;4.80;;
33954;SDS011;20233;50.804;7.126;2023-07-22T07:01:38;8.25;;;4.50;;
33954;SDS011;20233;50.804;7.126;2023-07-22T07:04:03;9.52;;;4.63;;
33954;SDS011;20233;50.804;7.126;2023-07-22T07:06:29;5.72;;;4.07;;
33954;SDS011;20233;50.804;7.126;2023-07-22T07:08:55;7.35;;;4.80;;
33954;SDS011;20233;50.804;7.126;2023-07-22T07:11:20;6.80;;;4.47;;
33954;SDS011;20233;50.804;7.126;2023-07-22T07:13:46;8.27;;;4.95;;
33954;SDS011;20233;50.804;7.126;2023-07-22T07:16:21;9.43;;;4.82;;
33954;SDS011;20233;50.804;7.126;2023-07-22T07:18:49;6.53;;;4.50;;
33954;SDS011;20233;50.804;7.126;2023-07-22T07:21:15;7.05;;;4.57;;
33954;SDS011;20233;50.804;7.126;2023-07-22T07:23:41;6.35;;;4.53;;
33954;SDS011;20233;50.804;7.126;2023-07-22T07:26:07;6.05;;;4.75;;
33954;SDS011;20233;50.804;7.126;2023-07-22T07:28:33;7.70;;;4.63;;
33954;SDS011;20233;50.804;7.126;2023-07-22T07:30:59;5.97;;;4.50;;
33954;SDS011;20233;50.804;7.126;2023-07-22T07:33:24;8.07;;;4.75;;
33954;SDS011;20233;50.804;7.126;2023-07-22T07:35:50;8.73;;;4.43;;
33954;SDS011;20233;50.804;7.126;2023-07-22T07:38:16;5.80;;;4.13;;
33954;SDS011;20233;50.804;7.126;2023-07-22T07:40:42;5.47;;;4.25;;
33954;SDS011;20233;50.804;7.126;2023-07-22T07:43:08;7.05;;;4.32;;
33954;SDS011;20233;50.804;7.126;2023-07-22T07:45:34;9.35;;;4.13;;
33954;SDS011;20233;50.804;7.126;2023-07-22T07:48:03;5.38;;;3.88;;
33954;SDS011;20233;50.804;7.126;2023-07-22T07:50:29;7.43;;;3.63;;
33954;SDS011;20233;50.804;7.126;2023-07-22T07:52:54;6.55;;;4.30;;
33954;SDS011;20233;50.804;7.126;2023-07-22T07:55:20;8.98;;;4.22;;
33954;SDS011;20233;50.804;7.126;2023-07-22T07:57:45;7.63;;;4.57;;
33954;SDS011;20233;50.804;7.126;2023-07-22T08:00:12;7.10;;;4.38;;
33954;SDS011;20233;50.804;7.126;2023-07-22T08:02:38;5.60;;;3.95;;
33954;SDS011;20233;50.804;7.126;2023-07-22T08:05:04;6.35;;;4.05;;
33954;SDS011;20233;50.804;7.126;2023-07-22T08:07:30;7.72;;;3.70;;
33954;SDS011;20233;50.804;7.126;2023-07-22T08:09:56;5.38;;;3.58;;
33954;SDS011;20233;50.804;7.126;2023-07-22T08:12:23;5.85;;;3.78;;
33954;SDS011;20233;50.804;7.126;2023-07-22T08:14:48;4.70;;;3.58;;
33954;SDS011;20233;50.804;7.126;2023-07-22T08:17:14;6.22;;;4.40;;
33954;SDS011;20233;50.804;7.126;2023-07-22T08:19:39;7.72;;;3.65;;
33954;SDS011;20233;50.804;7.126;2023-07-22T08:22:05;4.90;;;3.53;;
33954;SDS011;20233;50.804;7.126;2023-07-22T08:24:31;6.70;;;4.63;;
33954;SDS011;20233;50.804;7.126;2023-07-22T08:26:57;7.50;;;4.00;;
33954;SDS011;20233;50.804;7.126;2023-07-22T08:29:23;5.70;;;3.80;;
33954;SDS011;20233;50.804;7.126;2023-07-22T08:31:49;6.03;;;4.18;;
33954;SDS011;20233;50.804;7.126;2023-07-22T08:34:15;4.82;;;3.63;;
33954;SDS011;20233;50.804;7.126;2023-07-22T08:36:41;5.47;;;3.30;;
33954;SDS011;20233;50.804;7.126;2023-07-22T08:39:07;5.05;;;3.35;;
33954;SDS011;20233;50.804;7.126;2023-07-22T08:41:33;5.90;;;3.80;;
33954;SDS011;20233;50.804;7.126;2023-07-22T08:43:59;6.78;;;4.28;;
33954;SDS011;20233;50.804;7.126;2023-07-22T08:46:27;4.72;;;3.58;;
33954;SDS011;20233;50.804;7.126;2023-07-22T08:48:57;7.32;;;4.25;;
33954;SDS011;20233;50.804;7.126;2023-07-22T08:51:25;7.28;;;3.50;;
33954;SDS011;20233;50.804;7.126;2023-07-22T08:53:53;6.18;;;3.67;;
33954;SDS011;20233;50.804;7.126;2023-07-22T08:56:22;6.53;;;4.25;;
33954;SDS011;20233;50.804;7.126;2023-07-22T08:58:50;7.28;;;3.47;;
33954;SDS011;20233;50.804;7.126;2023-07-22T09:01:17;7.05;;;4.57;;
33954;SDS011;20233;50.804;7.126;2023-07-22T09:03:43;7.35;;;3.80;;
33954;SDS011;20233;50.804;7.126;2023-07-22T09:06:12;8.65;;;3.65;;
33954;SDS011;20233;50.804;7.126;2023-07-22T09:08:38;5.65;;;4.15;;
33954;SDS011;20233;50.804;7.126;2023-07-22T09:11:04;6.20;;;4.32;;
33954;SDS011;20233;50.804;7.126;2023-07-22T09:13:30;7.03;;;4.07;;
33954;SDS011;20233;50.804;7.126;2023-07-22T09:15:57;6.68;;;3.70;;
33954;SDS011;20233;50.804;7.126;2023-07-22T09:18:23;7.72;;;4.18;;
33954;SDS011;20233;50.804;7.126;2023-07-22T09:20:49;7.15;;;4.18;;
33954;SDS011;20233;50.804;7.126;2023-07-22T09:23:15;7.50;;;3.63;;
33954;SDS011;20233;50.804;7.126;2023-07-22T09:25:41;5.88;;;3.80;;
33954;SDS011;20233;50.804;7.126;2023-07-22T09:28:07;4.63;;;3.50;;
33954;SDS011;20233;50.804;7.126;2023-07-22T09:30:33;7.25;;;3.60;;
33954;SDS011;20233;50.804;7.126;2023-07-22T09:33:01;7.05;;;3.38;;
33954;SDS011;20233;50.804;7.126;2023-07-22T09:35:28;4.63;;;3.55;;
33954;SDS011;20233;50.804;7.126;2023-07-22T09:37:55;9.05;;;3.67;;
33954;SDS011;20233;50.804;7.126;2023-07-22T09:40:24;4.28;;;3.28;;
33954;SDS011;20233;50.804;7.126;2023-07-22T09:42:55;5.75;;;3.15;;
33954;SDS011;20233;50.804;7.126;2023-07-22T09:45:22;6.40;;;3.22;;
33954;SDS011;20233;50.804;7.126;2023-07-22T09:47:50;5.15;;;3.30;;
33954;SDS011;20233;50.804;7.126;2023-07-22T09:50:18;5.65;;;3.25;;
33954;SDS011;20233;50.804;7.126;2023-07-22T09:52:47;5.10;;;3.80;;
33954;SDS011;20233;50.804;7.126;2023-07-22T09:55:18;5.18;;;3.45;;
33954;SDS011;20233;50.804;7.126;2023-07-22T09:57:46;3.78;;;3.03;;
33954;SDS011;20233;50.804;7.126;2023-07-22T10:00:14;6.47;;;3.10;;
33954;SDS011;20233;50.804;7.126;2023-07-22T10:02:42;3.95;;;2.58;;
33954;SDS011;20233;50.804;7.126;2023-07-22T10:05:11;3.97;;;2.60;;
33954;SDS011;20233;50.804;7.126;2023-07-22T10:07:39;4.63;;;2.65;;
33954;SDS011;20233;50.804;7.126;2023-07-22T10:10:07;3.90;;;3.03;;
33954;SDS011;20233;50.804;7.126;2023-07-22T10:12:34;5.43;;;2.40;;
33954;SDS011;20233;50.804;7.126;2023-07-22T10:15:00;4.15;;;2.38;;
33954;SDS011;20233;50.804;7.126;2023-07-22T10:17:27;4.95;;;2.38;;
33954;SDS011;20233;50.804;7.126;2023-07-22T10:19:54;2.70;;;2.10;;
33954;SDS011;20233;50.804;7.126;2023-07-22T10:22:20;2.47;;;1.63;;
33954;SDS011;20233;50.804;7.126;2023-07-22T10:24:46;3.80;;;2.20;;
33954;SDS011;20233;50.804;7.126;2023-07-22T10:27:13;2.80;;;1.92;;
33954;SDS011;20233;50.804;7.126;2023-07-22T10:29:40;3.83;;;1.98;;
33954;SDS011;20233;50.804;7.126;2023-07-22T10:32:06;3.90;;;2.00;;
33954;SDS011;20233;50.804;7.126;2023-07-22T10:34:32;2.88;;;1.77;;
33954;SDS011;20233;50.804;7.126;2023-07-22T10:36:57;3.05;;;1.83;;
33954;SDS011;20233;50.804;7.126;2023-07-22T10:39:26;3.05;;;1.70;;
33954;SDS011;20233;50.804;7.126;2023-07-22T10:42:05;4.20;;;1.83;;
33954;SDS011;20233;50.804;7.126;2023-07-22T10:44:32;2.88;;;1.50;;
33954;SDS011;20233;50.804;7.126;2023-07-22T10:47:01;2.95;;;1.95;;
33954;SDS011;20233;50.804;7.126;2023-07-22T10:49:42;2.45;;;1.90;;
33954;SDS011;20233;50.804;7.126;2023-07-22T10:52:10;4.80;;;2.15;;
33954;SDS011;20233;50.804;7.126;2023-07-22T10:54:38;6.32;;;2.00;;
33954;SDS011;20233;50.804;7.126;2023-07-22T10:57:22;4.95;;;1.95;;
33954;SDS011;20233;50.804;7.126;2023-07-22T10:59:52;4.90;;;1.90;;
33954;SDS011;20233;50.804;7.126;2023-07-22T11:02:24;2.67;;;1.75;;
33954;SDS011;20233;50.804;7.126;2023-07-22T11:04:51;3.75;;;1.50;;
33954;SDS011;20233;50.804;7.126;2023-07-22T11:07:29;5.72;;;1.65;;
33954;SDS011;20233;50.804;7.126;2023-07-22T11:10:10;2.67;;;1.77;;
33954;SDS011;20233;50.804;7.126;2023-07-22T11:12:42;3.10;;;1.90;;
33954;SDS011;20233;50.804;7.126;2023-07-22T11:15:09;2.45;;;1.40;;
33954;SDS011;20233;50.804;7.126;2023-07-22T11:17:34;3.05;;;1.48;;
33954;SDS011;20233;50.804;7.126;2023-07-22T11:20:00;3.72;;;2.17;;
33954;SDS011;20233;50.804;7.126;2023-07-22T11:22:26;2.90;;;1.55;;
33954;SDS011;20233;50.804;7.126;2023-07-22T11:24:54;3.47;;;1.42;;
33954;SDS011;20233;50.804;7.126;2023-07-22T11:27:21;2.63;;;1.50;;
33954;SDS011;20233;50.804;7.126;2023-07-22T11:29:48;5.85;;;1.92;;
33954;SDS011;20233;50.804;7.126;2023-07-22T11:32:14;3.72;;;1.60;;
33954;SDS011;20233;50.804;7.126;2023-07-22T11:34:41;2.72;;;0.70;;
33954;SDS011;20233;50.804;7.126;2023-07-22T11:37:09;1.75;;;0.65;;
33954;SDS011;20233;50.804;7.126;2023-07-22T11:39:35;2.10;;;0.70;;
33954;SDS011;20233;50.804;7.126;2023-07-22T11:42:03;1.35;;;0.50;;
33954;SDS011;20233;50.804;7.126;2023-07-22T11:44:29;1.50;;;0.45;;
33954;SDS011;20233;50.804;7.126;2023-07-22T11:46:59;1.80;;;0.70;;
33954;SDS011;20233;50.804;7.126;2023-07-22T11:49:32;2.25;;;0.60;;
33954;SDS011;20233;50.804;7.126;2023-07-22T11:52:09;2.28;;;0.50;;
33954;SDS011;20233;50.804;7.126;2023-07-22T11:54:45;1.90;;;0.75;;
33954;SDS011;20233;50.804;7.126;2023-07-22T11:57:22;1.42;;;0.40;;
33954;SDS011;20233;50.804;7.126;2023-07-22T11:59:49;1.42;;;0.70;;
33954;SDS011;20233;50.804;7.126;2023-07-22T12:02:17;1.88;;;0.43;;
33954;SDS011;20233;50.804;7.126;2023-07-22T12:04:59;1.25;;;0.40;;
33954;SDS011;20233;50.804;7.126;2023-07-22T12:07:34;1.30;;;0.50;;
33954;SDS011;20233;50.804;7.126;2023-07-22T12:10:02;1.70;;;0.50;;
33954;SDS011;20233;50.804;7.126;2023-07-22T12:12:37;1.35;;;0.68;;
33954;SDS011;20233;50.804;7.126;2023-07-22T12:17:56;3.00;;;0.70;;
33954;SDS011;20233;50.804;7.126;2023-07-22T12:20:25;1.40;;;0.70;;
33954;SDS011;20233;50.804;7.126;2023-07-22T12:22:51;1.17;;;0.50;;
33954;SDS011;20233;50.804;7.126;2023-07-22T12:25:17;1.30;;;0.60;;
33954;SDS011;20233;50.804;7.126;2023-07-22T12:27:43;1.40;;;0.50;;
33954;SDS011;20233;50.804;7.126;2023-07-22T12:30:09;1.23;;;0.65;;
33954;SDS011;20233;50.804;7.126;2023-07-22T12:32:35;2.50;;;1.00;;
33954;SDS011;20233;50.804;7.126;2023-07-22T12:35:01;1.65;;;0.70;;
33954;SDS011;20233;50.804;7.126;2023-07-22T12:37:28;1.70;;;0.68;;
33954;SDS011;20233;50.804;7.126;2023-07-22T12:39:53;1.42;;;0.60;;
33954;SDS011;20233;50.804;7.126;2023-07-22T12:42:19;1.70;;;0.75;;
33954;SDS011;20233;50.804;7.126;2023-07-22T12:44:44;2.88;;;1.00;;
33954;SDS011;20233;50.804;7.126;2023-07-22T12:47:11;1.70;;;0.77;;
33954;SDS011;20233;50.804;7.126;2023-07-22T12:49:36;1.60;;;0.65;;
33954;SDS011;20233;50.804;7.126;2023-07-22T12:52:02;1.50;;;0.85;;
33954;SDS011;20233;50.804;7.126;2023-07-22T12:54:30;2.20;;;0.80;;
33954;SDS011;20233;50.804;7.126;2023-07-22T12:56:56;2.03;;;1.17;;
33954;SDS011;20233;50.804;7.126;2023-07-22T12:59:22;2.28;;;1.00;;
33954;SDS011;20233;50.804;7.126;2023-07-22T13:01:47;7.68;;;0.88;;
33954;SDS011;20233;50.804;7.126;2023-07-22T13:04:13;1.60;;;0.70;;
33954;SDS011;20233;50.804;7.126;2023-07-22T13:06:39;2.40;;;1.05;;
33954;SDS011;20233;50.804;7.126;2023-07-22T13:09:04;1.80;;;1.00;;
33954;SDS011;20233;50.804;7.126;2023-07-22T13:11:30;1.55;;;0.73;;
33954;SDS011;20233;50.804;7.126;2023-07-22T13:13:55;2.08;;;1.08;;
33954;SDS011;20233;50.804;7.126;2023-07-22T13:16:21;1.55;;;0.90;;
33954;SDS011;20233;50.804;7.126;2023-07-22T13:18:47;1.85;;;0.90;;
33954;SDS011;20233;50.804;7.126;2023-07-22T13:21:12;1.70;;;1.02;;
33954;SDS011;20233;50.804;7.126;2023-07-22T13:23:38;2.47;;;0.85;;
33954;SDS011;20233;50.804;7.126;2023-07-22T13:26:03;2.67;;;0.80;;
33954;SDS011;20233;50.804;7.126;2023-07-22T13:28:29;1.77;;;1.08;;
33954;SDS011;20233;50.804;7.126;2023-07-22T13:30:54;2.83;;;1.10;;
33954;SDS011;20233;50.804;7.126;2023-07-22T13:33:20;2.47;;;0.90;;
33954;SDS011;20233;50.804;7.126;2023-07-22T13:35:45;2.13;;;1.25;;
33954;SDS011;20233;50.804;7.126;2023-07-22T13:38:11;2.42;;;1.00;;
33954;SDS011;20233;50.804;7.126;2023-07-22T13:40:37;2.38;;;1.00;;
33954;SDS011;20233;50.804;7.126;2023-07-22T13:43:02;2.78;;;1.05;;
33954;SDS011;20233;50.804;7.126;2023-07-22T13:45:28;2.35;;;1.13;;
33954;SDS011;20233;50.804;7.126;2023-07-22T13:47:54;1.67;;;1.30;;
33954;SDS011;20233;50.804;7.126;2023-07-22T13:50:19;3.78;;;1.30;;
33954;SDS011;20233;50.804;7.126;2023-07-22T13:52:45;2.42;;;1.50;;
33954;SDS011;20233;50.804;7.126;2023-07-22T13:55:10;3.72;;;1.10;;
33954;SDS011;20233;50.804;7.126;2023-07-22T13:57:36;7.18;;;1.40;;
33954;SDS011;20233;50.804;7.126;2023-07-22T14:00:02;2.55;;;1.10;;
33954;SDS011;20233;50.804;7.126;2023-07-22T14:02:39;1.77;;;1.10;;
33954;SDS011;20233;50.804;7.126;2023-07-22T14:05:06;2.65;;;1.52;;
33954;SDS011;20233;50.804;7.126;2023-07-22T14:07:32;3.35;;;1.40;;
33954;SDS011;20233;50.804;7.126;2023-07-22T14:09:58;2.53;;;1.10;;
33954;SDS011;20233;50.804;7.126;2023-07-22T14:12:23;3.25;;;1.42;;
33954;SDS011;20233;50.804;7.126;2023-07-22T14:14:49;2.58;;;1.30;;
33954;SDS011;20233;50.804;7.126;2023-07-22T14:17:14;2.50;;;1.70;;
33954;SDS011;20233;50.804;7.126;2023-07-22T14:19:40;2.40;;;1.45;;
33954;SDS011;20233;50.804;7.126;2023-07-22T14:22:06;1.75;;;1.23;;
33954;SDS011;20233;50.804;7.126;2023-07-22T14:24:32;3.47;;;1.35;;
33954;SDS011;20233;50.804;7.126;2023-07-22T14:26:58;2.45;;;1.30;;
33954;SDS011;20233;50.804;7.126;2023-07-22T14:29:24;2.35;;;1.23;;
33954;SDS011;20233;50.804;7.126;2023-07-22T14:31:50;2.97;;;1.67;;
33954;SDS011;20233;50.804;7.126;2023-07-22T14:34:16;5.55;;;3.78;;
33954;SDS011;20233;50.804;7.126;2023-07-22T14:36:42;3.65;;;2.58;;
33954;SDS011;20233;50.804;7.126;2023-07-22T14:39:08;4.15;;;1.88;;
33954;SDS011;20233;50.804;7.126;2023-07-22T14:41:34;4.57;;;1.90;;
33954;SDS011;20233;50.804;7.126;2023-07-22T14:44:00;4.63;;;2.25;;